sensor_id;sensor_type;location;lat;lon;timestamp;pressure;altitude;pressure_sealevel;temperature;humidity
36242;BME280;22283;42.748;12.732;2022-08-19T00:00:10;97329.75;;;25.95;76.62
36242;BME280;22283;42.748;12.732;2022-08-19T00:05:12;97284.03;;;25.87;76.47
36242;BME280;22283;42.748;12.732;2022-08-19T00:10:14;97310.50;;;25.85;76.56
36242;BME280;22283;42.748;12.732;2022-08-19T00:15:18;97313.22;;;25.85;74.07
36242;BME280;22283;42.748;12.732;2022-08-19T00:20:21;97351.53;;;25.52;74.91
36242;BME280;22283;42.748;12.732;2022-08-19T00:25:22;97335.13;;;25.65;73.54
36242;BME280;22283;42.748;12.732;2022-08-19T00:30:23;97333.19;;;25.54;73.16
36242;BME280;22283;42.748;12.732;2022-08-19T00:35:24;97338.44;;;25.67;72.54
36242;BME280;22283;42.748;12.732;2022-08-19T00:40:27;97332.66;;;25.64;73.32
36242;BME280;22283;42.748;12.732;2022-08-19T00:45:28;97309.59;;;25.73;73.62
36242;BME280;22283;42.748;12.732;2022-08-19T00:50:32;97332.28;;;25.79;73.69
36242;BME280;22283;42.748;12.732;2022-08-19T00:55:33;97364.84;;;25.72;75.02
36242;BME280;22283;42.748;12.732;2022-08-19T01:00:34;97355.50;;;25.68;75.43
36242;BME280;22283;42.748;12.732;2022-08-19T01:05:38;97311.88;;;25.58;74.87
36242;BME280;22283;42.748;12.732;2022-08-19T01:10:44;97327.84;;;25.47;76.33
36242;BME280;22283;42.748;12.732;2022-08-19T01:15:50;97356.56;;;25.48;76.61
36242;BME280;22283;42.748;12.732;2022-08-19T01:20:54;97352.53;;;25.39;76.23
36242;BME280;22283;42.748;12.732;2022-08-19T01:25:56;97420.72;;;25.30;76.36
36242;BME280;22283;42.748;12.732;2022-08-19T01:30:57;97366.41;;;25.24;75.75
36242;BME280;22283;42.748;12.732;2022-08-19T01:36:07;97380.81;;;24.75;75.68
36242;BME280;22283;42.748;12.732;2022-08-19T01:41:11;97398.94;;;23.98;76.72
36242;BME280;22283;42.748;12.732;2022-08-19T01:46:12;97408.53;;;23.87;76.05
36242;BME280;22283;42.748;12.732;2022-08-19T01:51:13;97381.34;;;23.82;77.32
36242;BME280;22283;42.748;12.732;2022-08-19T01:56:14;97350.84;;;24.13;76.92
36242;BME280;22283;42.748;12.732;2022-08-19T02:01:15;97379.25;;;24.22;77.70
36242;BME280;22283;42.748;12.732;2022-08-19T02:06:16;97387.94;;;24.31;78.00
36242;BME280;22283;42.748;12.732;2022-08-19T02:11:23;97378.28;;;24.48;77.61
36242;BME280;22283;42.748;12.732;2022-08-19T02:16:26;97358.03;;;24.58;76.12
36242;BME280;22283;42.748;12.732;2022-08-19T02:21:28;97351.56;;;24.59;76.65
36242;BME280;22283;42.748;12.732;2022-08-19T02:26:29;97355.97;;;24.60;77.23
36242;BME280;22283;42.748;12.732;2022-08-19T02:31:30;97358.75;;;24.46;78.05
36242;BME280;22283;42.748;12.732;2022-08-19T02:36:31;97370.03;;;24.43;77.59
36242;BME280;22283;42.748;12.732;2022-08-19T02:41:33;97361.41;;;24.15;77.26
36242;BME280;22283;42.748;12.732;2022-08-19T02:46:34;97362.59;;;23.94;78.68
36242;BME280;22283;42.748;12.732;2022-08-19T02:51:40;97363.16;;;24.02;78.31
36242;BME280;22283;42.748;12.732;2022-08-19T02:56:43;97362.31;;;24.09;77.92
36242;BME280;22283;42.748;12.732;2022-08-19T03:01:45;97363.56;;;23.99;77.93
36242;BME280;22283;42.748;12.732;2022-08-19T03:06:46;97371.16;;;24.22;76.60
36242;BME280;22283;42.748;12.732;2022-08-19T03:11:47;97365.31;;;24.25;76.73
36242;BME280;22283;42.748;12.732;2022-08-19T03:16:51;97363.16;;;24.34;76.57
36242;BME280;22283;42.748;12.732;2022-08-19T03:21:52;97380.84;;;24.43;75.66
36242;BME280;22283;42.748;12.732;2022-08-19T03:26:54;97388.13;;;24.36;74.88
36242;BME280;22283;42.748;12.732;2022-08-19T03:32:02;97390.56;;;24.13;73.97
36242;BME280;22283;42.748;12.732;2022-08-19T03:37:07;97409.31;;;24.01;74.53
36242;BME280;22283;42.748;12.732;2022-08-19T03:42:09;97414.13;;;23.92;74.12
36242;BME280;22283;42.748;12.732;2022-08-19T03:47:10;97417.69;;;23.86;73.70
36242;BME280;22283;42.748;12.732;2022-08-19T03:52:15;97422.59;;;24.02;73.37
36242;BME280;22283;42.748;12.732;2022-08-19T03:57:16;97426.28;;;24.15;73.03
36242;BME280;22283;42.748;12.732;2022-08-19T04:02:17;97416.22;;;24.35;71.86
36242;BME280;22283;42.748;12.732;2022-08-19T04:07:17;97429.50;;;24.43;71.87
36242;BME280;22283;42.748;12.732;2022-08-19T04:12:21;97416.22;;;24.35;71.74
36242;BME280;22283;42.748;12.732;2022-08-19T04:17:22;97415.88;;;24.18;72.38
36242;BME280;22283;42.748;12.732;2022-08-19T04:22:22;97418.00;;;24.03;73.11
36242;BME280;22283;42.748;12.732;2022-08-19T04:27:23;97412.91;;;23.88;72.37
36242;BME280;22283;42.748;12.732;2022-08-19T04:32:24;97420.84;;;23.76;71.74
36242;BME280;22283;42.748;12.732;2022-08-19T04:37:26;97430.63;;;23.71;71.73
36242;BME280;22283;42.748;12.732;2022-08-19T04:42:27;97428.31;;;23.74;71.56
36242;BME280;22283;42.748;12.732;2022-08-19T04:47:42;97423.34;;;23.71;71.78
36242;BME280;22283;42.748;12.732;2022-08-19T04:52:43;97424.41;;;23.50;73.02
36242;BME280;22283;42.748;12.732;2022-08-19T04:57:45;97422.81;;;23.10;74.43
36242;BME280;22283;42.748;12.732;2022-08-19T05:02:46;97432.38;;;22.92;76.02
36242;BME280;22283;42.748;12.732;2022-08-19T05:07:47;97423.63;;;22.83;76.96
36242;BME280;22283;42.748;12.732;2022-08-19T05:12:47;97417.81;;;23.20;76.24
36242;BME280;22283;42.748;12.732;2022-08-19T05:17:48;97425.53;;;23.94;73.28
36242;BME280;22283;42.748;12.732;2022-08-19T05:23:10;97422.41;;;24.42;71.90
36242;BME280;22283;42.748;12.732;2022-08-19T05:28:11;97390.00;;;24.92;69.53
36242;BME280;22283;42.748;12.732;2022-08-19T05:33:12;97394.94;;;25.45;67.30
36242;BME280;22283;42.748;12.732;2022-08-19T05:38:12;97370.50;;;25.89;65.40
36242;BME280;22283;42.748;12.732;2022-08-19T05:43:13;97360.84;;;26.23;63.74
36242;BME280;22283;42.748;12.732;2022-08-19T05:48:16;97345.75;;;26.45;62.54
36242;BME280;22283;42.748;12.732;2022-08-19T05:53:18;97324.91;;;26.69;62.20
36242;BME280;22283;42.748;12.732;2022-08-19T05:58:19;97300.59;;;26.98;61.61
36242;BME280;22283;42.748;12.732;2022-08-19T06:03:19;97287.59;;;27.24;60.82
36242;BME280;22283;42.748;12.732;2022-08-19T06:08:20;97287.44;;;27.54;60.15
36242;BME280;22283;42.748;12.732;2022-08-19T06:13:22;97291.50;;;27.80;59.16
36242;BME280;22283;42.748;12.732;2022-08-19T06:18:24;97299.50;;;27.86;58.86
36242;BME280;22283;42.748;12.732;2022-08-19T06:23:25;97321.97;;;27.82;58.95
36242;BME280;22283;42.748;12.732;2022-08-19T06:28:26;97335.03;;;27.97;59.22
36242;BME280;22283;42.748;12.732;2022-08-19T06:33:33;97343.28;;;28.02;58.92
36242;BME280;22283;42.748;12.732;2022-08-19T06:38:34;97375.88;;;28.13;58.99
36242;BME280;22283;42.748;12.732;2022-08-19T06:43:35;97365.91;;;28.19;58.80
36242;BME280;22283;42.748;12.732;2022-08-19T06:48:36;97383.47;;;28.40;57.83
36242;BME280;22283;42.748;12.732;2022-08-19T06:53:37;97401.31;;;28.48;58.26
36242;BME280;22283;42.748;12.732;2022-08-19T06:58:39;97400.28;;;28.37;56.44
36242;BME280;22283;42.748;12.732;2022-08-19T07:03:41;97422.94;;;28.14;57.38
36242;BME280;22283;42.748;12.732;2022-08-19T07:08:42;97446.88;;;27.88;57.62
36242;BME280;22283;42.748;12.732;2022-08-19T07:13:43;97443.78;;;27.97;57.59
36242;BME280;22283;42.748;12.732;2022-08-19T07:18:47;97445.84;;;28.18;56.80
36242;BME280;22283;42.748;12.732;2022-08-19T07:23:49;97445.72;;;28.36;56.81
36242;BME280;22283;42.748;12.732;2022-08-19T07:28:50;97453.78;;;28.60;55.49
36242;BME280;22283;42.748;12.732;2022-08-19T07:33:52;97456.44;;;28.88;55.44
36242;BME280;22283;42.748;12.732;2022-08-19T07:38:55;97449.56;;;28.12;54.92
36242;BME280;22283;42.748;12.732;2022-08-19T07:43:57;97452.31;;;27.88;56.93
36242;BME280;22283;42.748;12.732;2022-08-19T07:48:59;97442.28;;;27.77;55.88
36242;BME280;22283;42.748;12.732;2022-08-19T07:54:00;97437.94;;;27.76;56.85
36242;BME280;22283;42.748;12.732;2022-08-19T07:59:01;97439.66;;;27.70;56.56
36242;BME280;22283;42.748;12.732;2022-08-19T08:04:02;97450.66;;;27.87;54.73
36242;BME280;22283;42.748;12.732;2022-08-19T08:09:36;97442.41;;;27.82;54.78
36242;BME280;22283;42.748;12.732;2022-08-19T08:14:40;97441.22;;;27.78;54.15
36242;BME280;22283;42.748;12.732;2022-08-19T08:19:43;97423.03;;;27.55;53.69
36242;BME280;22283;42.748;12.732;2022-08-19T08:24:44;97405.75;;;27.85;52.49
36242;BME280;22283;42.748;12.732;2022-08-19T08:29:45;97422.31;;;28.24;51.67
36242;BME280;22283;42.748;12.732;2022-08-19T08:34:46;97418.75;;;28.23;51.36
36242;BME280;22283;42.748;12.732;2022-08-19T08:39:46;97438.50;;;28.18;50.28
36242;BME280;22283;42.748;12.732;2022-08-19T08:45:08;97457.59;;;27.95;50.30
36242;BME280;22283;42.748;12.732;2022-08-19T08:50:38;97471.75;;;28.21;50.78
36242;BME280;22283;42.748;12.732;2022-08-19T08:55:40;97477.50;;;28.48;49.30
36242;BME280;22283;42.748;12.732;2022-08-19T09:00:47;97480.81;;;28.26;49.14
36242;BME280;22283;42.748;12.732;2022-08-19T09:06:00;97481.78;;;28.32;48.95
36242;BME280;22283;42.748;12.732;2022-08-19T09:11:06;97485.44;;;28.37;48.57
36242;BME280;22283;42.748;12.732;2022-08-19T09:16:19;97479.41;;;28.35;49.06
36242;BME280;22283;42.748;12.732;2022-08-19T09:21:21;97470.06;;;28.43;47.81
36242;BME280;22283;42.748;12.732;2022-08-19T09:26:26;97489.97;;;28.20;49.56
36242;BME280;22283;42.748;12.732;2022-08-19T09:31:28;97475.16;;;28.39;48.14
36242;BME280;22283;42.748;12.732;2022-08-19T09:36:31;97485.53;;;28.31;49.49
36242;BME280;22283;42.748;12.732;2022-08-19T09:41:36;97488.06;;;28.21;48.60
36242;BME280;22283;42.748;12.732;2022-08-19T09:46:37;97491.44;;;27.87;48.51
36242;BME280;22283;42.748;12.732;2022-08-19T09:51:37;97514.13;;;27.69;51.54
36242;BME280;22283;42.748;12.732;2022-08-19T09:56:38;97526.03;;;27.33;57.40
36242;BME280;22283;42.748;12.732;2022-08-19T10:01:39;97499.91;;;26.90;58.14
36242;BME280;22283;42.748;12.732;2022-08-19T10:06:40;97514.59;;;27.01;60.09
36242;BME280;22283;42.748;12.732;2022-08-19T10:11:44;97510.00;;;27.02;59.45
36242;BME280;22283;42.748;12.732;2022-08-19T10:16:50;97500.13;;;26.77;58.17
36242;BME280;22283;42.748;12.732;2022-08-19T10:21:52;97502.44;;;26.62;61.87
36242;BME280;22283;42.748;12.732;2022-08-19T10:26:54;97500.94;;;26.47;60.79
36242;BME280;22283;42.748;12.732;2022-08-19T10:31:55;97507.72;;;26.38;64.07
36242;BME280;22283;42.748;12.732;2022-08-19T10:36:57;97494.13;;;26.57;64.27
36242;BME280;22283;42.748;12.732;2022-08-19T10:41:58;97488.78;;;26.80;60.88
36242;BME280;22283;42.748;12.732;2022-08-19T10:46:59;97488.44;;;26.88;59.56
36242;BME280;22283;42.748;12.732;2022-08-19T10:52:00;97480.28;;;27.18;54.85
36242;BME280;22283;42.748;12.732;2022-08-19T10:57:20;97487.69;;;27.77;55.48
36242;BME280;22283;42.748;12.732;2022-08-19T11:02:24;97479.59;;;27.70;54.11
36242;BME280;22283;42.748;12.732;2022-08-19T11:07:25;97471.44;;;27.93;50.99
36242;BME280;22283;42.748;12.732;2022-08-19T11:12:26;97468.63;;;27.65;50.59
36242;BME280;22283;42.748;12.732;2022-08-19T11:17:28;97464.38;;;27.69;49.88
36242;BME280;22283;42.748;12.732;2022-08-19T11:22:31;97470.75;;;27.86;50.29
36242;BME280;22283;42.748;12.732;2022-08-19T11:27:31;97486.81;;;28.00;49.67
36242;BME280;22283;42.748;12.732;2022-08-19T11:32:32;97478.41;;;28.01;49.42
36242;BME280;22283;42.748;12.732;2022-08-19T11:37:34;97466.38;;;27.85;48.17
36242;BME280;22283;42.748;12.732;2022-08-19T11:42:37;97461.63;;;28.04;47.43
36242;BME280;22283;42.748;12.732;2022-08-19T11:47:56;97478.75;;;28.05;47.69
36242;BME280;22283;42.748;12.732;2022-08-19T11:52:58;97519.16;;;26.59;56.09
36242;BME280;22283;42.748;12.732;2022-08-19T11:57:58;97535.72;;;25.95;61.42
36242;BME280;22283;42.748;12.732;2022-08-19T12:02:59;97528.78;;;25.81;62.39
36242;BME280;22283;42.748;12.732;2022-08-19T12:08:00;97556.59;;;25.45;62.72
36242;BME280;22283;42.748;12.732;2022-08-19T12:13:01;97559.69;;;24.34;65.53
36242;BME280;22283;42.748;12.732;2022-08-19T12:18:03;97547.69;;;24.16;65.63
36242;BME280;22283;42.748;12.732;2022-08-19T12:23:05;97519.84;;;24.16;65.97
36242;BME280;22283;42.748;12.732;2022-08-19T12:28:07;97490.28;;;24.21;66.30
36242;BME280;22283;42.748;12.732;2022-08-19T12:33:08;97494.81;;;24.27;65.44
36242;BME280;22283;42.748;12.732;2022-08-19T12:38:08;97491.84;;;24.48;64.77
36242;BME280;22283;42.748;12.732;2022-08-19T12:43:09;97456.75;;;24.73;63.99
36242;BME280;22283;42.748;12.732;2022-08-19T12:48:12;97455.72;;;24.36;64.83
36242;BME280;22283;42.748;12.732;2022-08-19T12:53:13;97460.00;;;24.12;65.53
36242;BME280;22283;42.748;12.732;2022-08-19T12:58:15;97454.28;;;23.62;67.46
36242;BME280;22283;42.748;12.732;2022-08-19T13:03:15;97458.06;;;23.28;69.88
36242;BME280;22283;42.748;12.732;2022-08-19T13:08:16;97485.47;;;23.51;70.35
36242;BME280;22283;42.748;12.732;2022-08-19T13:13:17;97470.94;;;23.52;70.63
36242;BME280;22283;42.748;12.732;2022-08-19T13:18:18;97474.25;;;23.61;70.54
36242;BME280;22283;42.748;12.732;2022-08-19T13:23:18;97486.72;;;23.69;74.25
36242;BME280;22283;42.748;12.732;2022-08-19T13:28:19;97491.72;;;22.99;73.78
36242;BME280;22283;42.748;12.732;2022-08-19T13:33:20;97515.47;;;22.55;79.24
36242;BME280;22283;42.748;12.732;2022-08-19T13:38:20;97525.75;;;22.93;81.16
36242;BME280;22283;42.748;12.732;2022-08-19T13:43:23;97532.75;;;22.81;80.22
36242;BME280;22283;42.748;12.732;2022-08-19T13:48:26;97533.59;;;22.81;81.41
36242;BME280;22283;42.748;12.732;2022-08-19T13:53:27;97510.41;;;23.07;78.34
36242;BME280;22283;42.748;12.732;2022-08-19T13:58:27;97533.88;;;23.53;77.92
36242;BME280;22283;42.748;12.732;2022-08-19T14:03:28;97556.31;;;23.80;76.13
36242;BME280;22283;42.748;12.732;2022-08-19T14:08:30;97569.19;;;23.78;75.14
36242;BME280;22283;42.748;12.732;2022-08-19T14:13:33;97562.94;;;23.71;73.75
36242;BME280;22283;42.748;12.732;2022-08-19T14:18:34;97563.34;;;23.28;74.56
36242;BME280;22283;42.748;12.732;2022-08-19T14:23:35;97554.41;;;23.07;77.31
36242;BME280;22283;42.748;12.732;2022-08-19T14:28:37;97560.13;;;22.78;80.19
36242;BME280;22283;42.748;12.732;2022-08-19T14:33:37;97554.66;;;22.51;79.91
36242;BME280;22283;42.748;12.732;2022-08-19T14:38:38;97561.13;;;22.16;74.64
36242;BME280;22283;42.748;12.732;2022-08-19T14:43:39;97573.56;;;21.89;76.15
36242;BME280;22283;42.748;12.732;2022-08-19T14:48:41;97576.13;;;21.69;77.11
36242;BME280;22283;42.748;12.732;2022-08-19T14:53:42;97571.09;;;21.59;77.57
36242;BME280;22283;42.748;12.732;2022-08-19T14:58:44;97571.41;;;21.49;75.88
36242;BME280;22283;42.748;12.732;2022-08-19T15:03:45;97572.16;;;21.36;75.26
36242;BME280;22283;42.748;12.732;2022-08-19T15:08:47;97569.13;;;21.25;75.35
36242;BME280;22283;42.748;12.732;2022-08-19T15:13:48;97587.38;;;21.29;73.35
36242;BME280;22283;42.748;12.732;2022-08-19T15:18:53;97588.75;;;21.40;73.74
36242;BME280;22283;42.748;12.732;2022-08-19T15:23:56;97570.66;;;21.55;73.26
36242;BME280;22283;42.748;12.732;2022-08-19T15:28:58;97561.16;;;21.59;73.81
36242;BME280;22283;42.748;12.732;2022-08-19T15:33:59;97556.69;;;21.73;74.34
36242;BME280;22283;42.748;12.732;2022-08-19T15:39:00;97560.53;;;21.92;75.16
36242;BME280;22283;42.748;12.732;2022-08-19T15:44:07;97569.97;;;22.09;77.52
36242;BME280;22283;42.748;12.732;2022-08-19T15:49:11;97572.38;;;22.26;76.77
36242;BME280;22283;42.748;12.732;2022-08-19T15:54:15;97569.50;;;22.34;72.78
36242;BME280;22283;42.748;12.732;2022-08-19T15:59:16;97580.34;;;22.47;70.34
36242;BME280;22283;42.748;12.732;2022-08-19T16:04:36;97572.47;;;22.52;73.06
36242;BME280;22283;42.748;12.732;2022-08-19T16:09:55;97564.59;;;22.51;71.44
36242;BME280;22283;42.748;12.732;2022-08-19T16:14:56;97567.94;;;22.59;72.50
36242;BME280;22283;42.748;12.732;2022-08-19T16:19:57;97570.47;;;22.68;70.52
36242;BME280;22283;42.748;12.732;2022-08-19T16:24:57;97576.50;;;22.70;70.32
36242;BME280;22283;42.748;12.732;2022-08-19T16:29:59;97569.88;;;22.79;70.52
36242;BME280;22283;42.748;12.732;2022-08-19T16:35:03;97580.53;;;23.00;70.65
36242;BME280;22283;42.748;12.732;2022-08-19T16:40:05;97582.66;;;23.18;68.30
36242;BME280;22283;42.748;12.732;2022-08-19T16:45:08;97586.19;;;23.45;66.65
36242;BME280;22283;42.748;12.732;2022-08-19T16:50:09;97587.66;;;23.54;66.79
36242;BME280;22283;42.748;12.732;2022-08-19T16:55:10;97583.91;;;23.42;67.18
36242;BME280;22283;42.748;12.732;2022-08-19T17:00:11;97584.31;;;23.39;67.76
36242;BME280;22283;42.748;12.732;2022-08-19T17:05:13;97579.53;;;23.28;69.03
36242;BME280;22283;42.748;12.732;2022-08-19T17:10:14;97590.16;;;23.36;69.22
36242;BME280;22283;42.748;12.732;2022-08-19T17:15:15;97572.50;;;23.40;68.28
36242;BME280;22283;42.748;12.732;2022-08-19T17:20:16;97587.25;;;23.44;68.82
36242;BME280;22283;42.748;12.732;2022-08-19T17:25:17;97592.00;;;23.42;68.79
36242;BME280;22283;42.748;12.732;2022-08-19T17:30:18;97583.47;;;23.32;69.35
36242;BME280;22283;42.748;12.732;2022-08-19T17:35:19;97593.00;;;23.08;70.39
36242;BME280;22283;42.748;12.732;2022-08-19T17:40:20;97592.66;;;22.70;72.03
36242;BME280;22283;42.748;12.732;2022-08-19T17:45:21;97592.22;;;22.59;71.78
36242;BME280;22283;42.748;12.732;2022-08-19T17:50:22;97607.34;;;22.54;72.83
36242;BME280;22283;42.748;12.732;2022-08-19T17:55:23;97613.28;;;22.43;74.05
36242;BME280;22283;42.748;12.732;2022-08-19T18:00:24;97624.63;;;22.31;75.41
36242;BME280;22283;42.748;12.732;2022-08-19T18:05:28;97636.63;;;22.29;76.37
36242;BME280;22283;42.748;12.732;2022-08-19T18:10:31;97640.75;;;22.25;76.37
36242;BME280;22283;42.748;12.732;2022-08-19T18:15:32;97643.09;;;22.06;77.60
36242;BME280;22283;42.748;12.732;2022-08-19T18:20:32;97652.69;;;21.88;78.78
36242;BME280;22283;42.748;12.732;2022-08-19T18:25:33;97648.81;;;21.69;80.34
36242;BME280;22283;42.748;12.732;2022-08-19T18:30:39;97659.41;;;21.49;81.65
36242;BME280;22283;42.748;12.732;2022-08-19T18:35:41;97678.13;;;21.35;81.92
36242;BME280;22283;42.748;12.732;2022-08-19T18:40:45;97682.84;;;21.33;81.48
36242;BME280;22283;42.748;12.732;2022-08-19T18:51:59;97692.41;;;21.21;82.90
36242;BME280;22283;42.748;12.732;2022-08-19T18:57:02;97685.69;;;21.10;83.73
36242;BME280;22283;42.748;12.732;2022-08-19T19:02:05;97696.66;;;20.94;84.45
36242;BME280;22283;42.748;12.732;2022-08-19T19:07:07;97699.84;;;20.83;84.25
36242;BME280;22283;42.748;12.732;2022-08-19T19:12:12;97691.22;;;20.73;83.83
36242;BME280;22283;42.748;12.732;2022-08-19T19:17:14;97695.69;;;20.66;83.18
36242;BME280;22283;42.748;12.732;2022-08-19T19:22:16;97682.34;;;20.57;81.77
36242;BME280;22283;42.748;12.732;2022-08-19T19:27:17;97682.06;;;20.52;80.37
36242;BME280;22283;42.748;12.732;2022-08-19T19:32:26;97692.16;;;20.50;80.87
36242;BME280;22283;42.748;12.732;2022-08-19T19:37:28;97692.22;;;20.42;80.22
36242;BME280;22283;42.748;12.732;2022-08-19T19:42:29;97697.22;;;20.30;81.32
36242;BME280;22283;42.748;12.732;2022-08-19T19:47:29;97705.75;;;20.34;81.18
36242;BME280;22283;42.748;12.732;2022-08-19T19:52:30;97703.34;;;20.39;80.60
36242;BME280;22283;42.748;12.732;2022-08-19T19:57:31;97714.47;;;20.36;80.84
36242;BME280;22283;42.748;12.732;2022-08-19T20:02:32;97714.63;;;20.34;80.76
36242;BME280;22283;42.748;12.732;2022-08-19T20:07:32;97714.06;;;20.39;79.33
36242;BME280;22283;42.748;12.732;2022-08-19T20:12:51;97715.66;;;20.33;80.15
36242;BME280;22283;42.748;12.732;2022-08-19T20:17:54;97711.13;;;20.34;79.75
36242;BME280;22283;42.748;12.732;2022-08-19T20:22:54;97705.19;;;20.24;80.49
36242;BME280;22283;42.748;12.732;2022-08-19T20:27:55;97708.13;;;20.14;80.75
36242;BME280;22283;42.748;12.732;2022-08-19T20:32:56;97709.41;;;20.03;81.39
36242;BME280;22283;42.748;12.732;2022-08-19T20:37:57;97716.00;;;20.01;81.70
36242;BME280;22283;42.748;12.732;2022-08-19T20:42:58;97709.56;;;19.87;82.52
36242;BME280;22283;42.748;12.732;2022-08-19T20:48:04;97710.66;;;19.78;82.51
36242;BME280;22283;42.748;12.732;2022-08-19T20:53:14;97717.56;;;19.49;84.58
36242;BME280;22283;42.748;12.732;2022-08-19T20:58:17;97721.25;;;19.48;83.96
36242;BME280;22283;42.748;12.732;2022-08-19T21:03:21;97719.75;;;19.46;83.60
36242;BME280;22283;42.748;12.732;2022-08-19T21:08:23;97720.28;;;19.41;84.47
36242;BME280;22283;42.748;12.732;2022-08-19T21:13:24;97718.34;;;19.27;85.36
36242;BME280;22283;42.748;12.732;2022-08-19T21:18:25;97725.75;;;19.25;85.14
36242;BME280;22283;42.748;12.732;2022-08-19T21:23:28;97734.78;;;19.24;85.43
36242;BME280;22283;42.748;12.732;2022-08-19T21:28:29;97739.88;;;19.19;86.03
36242;BME280;22283;42.748;12.732;2022-08-19T21:33:30;97746.59;;;19.14;85.67
36242;BME280;22283;42.748;12.732;2022-08-19T21:38:33;97748.38;;;18.91;86.46
36242;BME280;22283;42.748;12.732;2022-08-19T21:43:35;97767.31;;;18.89;87.64
36242;BME280;22283;42.748;12.732;2022-08-19T21:48:36;97781.88;;;18.95;87.26
36242;BME280;22283;42.748;12.732;2022-08-19T21:53:37;97776.31;;;19.05;87.19
36242;BME280;22283;42.748;12.732;2022-08-19T21:58:38;97779.09;;;19.11;86.40
36242;BME280;22283;42.748;12.732;2022-08-19T22:03:39;97774.94;;;19.09;85.85
36242;BME280;22283;42.748;12.732;2022-08-19T22:08:39;97779.81;;;19.05;85.92
36242;BME280;22283;42.748;12.732;2022-08-19T22:13:41;97774.13;;;19.00;86.07
36242;BME280;22283;42.748;12.732;2022-08-19T22:18:42;97782.22;;;18.84;87.02
36242;BME280;22283;42.748;12.732;2022-08-19T22:23:43;97775.22;;;18.83;87.84
36242;BME280;22283;42.748;12.732;2022-08-19T22:28:44;97781.94;;;18.79;86.81
36242;BME280;22283;42.748;12.732;2022-08-19T22:33:45;97783.63;;;18.72;87.72
36242;BME280;22283;42.748;12.732;2022-08-19T22:38:46;97772.56;;;18.75;87.54
36242;BME280;22283;42.748;12.732;2022-08-19T22:43:47;97769.84;;;18.83;87.34
36242;BME280;22283;42.748;12.732;2022-08-19T22:48:48;97764.97;;;18.86;87.17
36242;BME280;22283;42.748;12.732;2022-08-19T22:53:48;97771.66;;;18.90;86.59
36242;BME280;22283;42.748;12.732;2022-08-19T22:58:49;97780.84;;;18.96;86.80
36242;BME280;22283;42.748;12.732;2022-08-19T23:03:51;97767.41;;;19.04;87.35
36242;BME280;22283;42.748;12.732;2022-08-19T23:08:51;97761.69;;;19.07;87.96
36242;BME280;22283;42.748;12.732;2022-08-19T23:13:52;97754.94;;;19.20;86.01
36242;BME280;22283;42.748;12.732;2022-08-19T23:18:53;97745.53;;;19.24;84.38
36242;BME280;22283;42.748;12.732;2022-08-19T23:23:54;97746.94;;;19.11;85.36
36242;BME280;22283;42.748;12.732;2022-08-19T23:28:55;97732.88;;;19.09;85.45
36242;BME280;22283;42.748;12.732;2022-08-19T23:34:15;97740.59;;;19.04;86.06
36242;BME280;22283;42.748;12.732;2022-08-19T23:39:16;97747.16;;;19.02;86.79
36242;BME280;22283;42.748;12.732;2022-08-19T23:44:17;97744.13;;;19.05;86.20
36242;BME280;22283;42.748;12.732;2022-08-19T23:49:18;97743.13;;;19.06;85.63
36242;BME280;22283;42.748;12.732;2022-08-19T23:54:19;97741.91;;;19.08;85.91
36242;BME280;22283;42.748;12.732;2022-08-19T23:59:20;97736.09;;;19.05;86.11
